Time;durP1;ratioP1;P1;durP2;ratioP2;P2;SDS_P1;SDS_P2;PMS_P1;PMS_P2;Temp;Humidity;BMP_temperature;BMP_pressure;BME280_temperature;BME280_humidity;BME280_pressure;Samples;Min_cycle;Max_cycle;Signal;HPM_P1;HPM_P2
2024/01/09 00:01:12;;;;;;;19.43;10.50;;;;;;;;;;5016501;28;20470;-81
2024/01/09 00:03:38;;;;;;;21.53;11.30;;;;;;;;;;5028989;28;20485;-81
2024/01/09 00:06:05;;;;;;;17.67;10.50;;;;;;;;;;5000129;28;20879;-81
2024/01/09 00:08:31;;;;;;;17.07;10.40;;;;;;;;;;5036079;28;20421;-81
2024/01/09 00:11:00;;;;;;;18.10;10.40;;;;;;;;;;5014631;28;20433;-81
2024/01/09 00:13:26;;;;;;;17.07;10.70;;;;;;;;;;5017048;28;20559;-81
2024/01/09 00:15:52;;;;;;;19.07;10.77;;;;;;;;;;5031573;28;20447;-81
2024/01/09 00:18:18;;;;;;;18.93;10.53;;;;;;;;;;5014064;28;20185;-81
2024/01/09 00:20:44;;;;;;;19.13;10.43;;;;;;;;;;5031282;28;20187;-81
2024/01/09 00:23:11;;;;;;;18.77;10.60;;;;;;;;;;5036379;28;20449;-81
2024/01/09 00:25:37;;;;;;;18.30;10.17;;;;;;;;;;4994765;28;20468;-80
2024/01/09 00:28:03;;;;;;;17.97;10.83;;;;;;;;;;5002066;28;20442;-80
2024/01/09 00:30:29;;;;;;;15.57;9.63;;;;;;;;;;5011237;28;20527;-81
2024/01/09 00:32:56;;;;;;;15.47;9.37;;;;;;;;;;5016066;28;20470;-81
2024/01/09 00:35:22;;;;;;;22.03;11.23;;;;;;;;;;5014575;28;20441;-81
2024/01/09 00:37:48;;;;;;;16.90;10.10;;;;;;;;;;5019332;28;20458;-81
2024/01/09 00:40:14;;;;;;;20.87;10.73;;;;;;;;;;5025162;28;20594;-81
2024/01/09 00:42:41;;;;;;;17.63;10.43;;;;;;;;;;5003519;28;20453;-81
2024/01/09 00:45:07;;;;;;;18.83;10.10;;;;;;;;;;4995357;28;21025;-81
2024/01/09 00:47:33;;;;;;;19.23;10.53;;;;;;;;;;4990165;28;20550;-81
2024/01/09 00:49:59;;;;;;;18.70;10.17;;;;;;;;;;4995116;28;20203;-80
2024/01/09 00:52:26;;;;;;;16.43;10.00;;;;;;;;;;5026549;28;20430;-80
2024/01/09 00:54:52;;;;;;;15.90;9.30;;;;;;;;;;5029473;28;20469;-80
2024/01/09 00:57:18;;;;;;;16.87;9.93;;;;;;;;;;5016606;28;20512;-81
2024/01/09 00:59:44;;;;;;;17.03;10.17;;;;;;;;;;5010624;28;20846;-81
2024/01/09 01:02:10;;;;;;;15.80;9.43;;;;;;;;;;5031513;28;20450;-81
2024/01/09 01:04:39;;;;;;;15.87;9.80;;;;;;;;;;5019968;28;20504;-81
2024/01/09 01:07:06;;;;;;;19.10;9.57;;;;;;;;;;5027542;28;20463;-81
2024/01/09 01:09:32;;;;;;;19.43;9.53;;;;;;;;;;5031969;28;20809;-81
2024/01/09 01:11:58;;;;;;;15.53;9.30;;;;;;;;;;5024379;28;20812;-80
2024/01/09 01:14:24;;;;;;;19.80;11.60;;;;;;;;;;5018755;28;21092;-80
2024/01/09 01:16:50;;;;;;;17.17;9.30;;;;;;;;;;5025916;28;20437;-79
2024/01/09 01:19:16;;;;;;;18.10;10.30;;;;;;;;;;5030564;28;20444;-80
2024/01/09 01:21:42;;;;;;;16.17;10.10;;;;;;;;;;5031466;28;20421;-79
2024/01/09 01:24:09;;;;;;;16.87;9.23;;;;;;;;;;5013674;28;20460;-79
2024/01/09 01:26:37;;;;;;;15.83;9.30;;;;;;;;;;5030297;28;20508;-81
2024/01/09 01:29:03;;;;;;;15.60;9.53;;;;;;;;;;5011391;28;20433;-79
2024/01/09 01:31:29;;;;;;;15.20;8.70;;;;;;;;;;5025166;28;20472;-81
2024/01/09 01:33:55;;;;;;;16.90;9.70;;;;;;;;;;5009815;28;20492;-79
2024/01/09 01:36:22;;;;;;;17.13;9.50;;;;;;;;;;5005409;28;21186;-79
2024/01/09 01:38:48;;;;;;;16.80;8.87;;;;;;;;;;5028683;28;20579;-78
2024/01/09 01:41:14;;;;;;;17.00;9.43;;;;;;;;;;5032063;28;21780;-78
2024/01/09 01:43:40;;;;;;;15.33;8.47;;;;;;;;;;5016614;28;20460;-80
2024/01/09 01:46:07;;;;;;;16.60;9.33;;;;;;;;;;5030062;28;20440;-79
2024/01/09 01:48:33;;;;;;;15.50;8.60;;;;;;;;;;5014116;28;20441;-79
2024/01/09 01:51:00;;;;;;;17.70;9.20;;;;;;;;;;5024096;28;20507;-79
2024/01/09 01:53:27;;;;;;;15.00;9.17;;;;;;;;;;5012838;28;20529;-79
2024/01/09 01:55:53;;;;;;;14.80;8.57;;;;;;;;;;5033336;28;20418;-80
2024/01/09 01:58:20;;;;;;;14.33;7.97;;;;;;;;;;5013699;28;20616;-80
2024/01/09 02:00:46;;;;;;;16.13;9.13;;;;;;;;;;4998577;28;20266;-79
2024/01/09 02:03:14;;;;;;;14.33;8.47;;;;;;;;;;5000674;28;20485;-79
2024/01/09 02:05:40;;;;;;;16.13;8.73;;;;;;;;;;4998885;28;20434;-79
2024/01/09 02:08:07;;;;;;;13.57;8.30;;;;;;;;;;5011247;28;20197;-80
2024/01/09 02:10:33;;;;;;;13.80;8.57;;;;;;;;;;5017955;28;20444;-79
2024/01/09 02:12:59;;;;;;;14.20;8.70;;;;;;;;;;5032416;28;20472;-80
2024/01/09 02:15:26;;;;;;;15.63;8.53;;;;;;;;;;5030031;28;20246;-80
2024/01/09 02:17:52;;;;;;;15.13;8.10;;;;;;;;;;5032926;28;20437;-79
2024/01/09 02:20:22;;;;;;;14.87;8.60;;;;;;;;;;5032001;28;20430;-79
2024/01/09 02:22:48;;;;;;;13.73;8.20;;;;;;;;;;5029246;28;20453;-79
2024/01/09 02:25:15;;;;;;;13.07;7.60;;;;;;;;;;5029054;28;20193;-79
2024/01/09 02:27:41;;;;;;;13.00;7.90;;;;;;;;;;5011218;28;20662;-80
2024/01/09 02:30:07;;;;;;;13.10;7.30;;;;;;;;;;5034543;28;20425;-79
2024/01/09 02:32:34;;;;;;;12.87;8.00;;;;;;;;;;5029788;28;20256;-79
2024/01/09 02:35:00;;;;;;;14.50;8.67;;;;;;;;;;5017630;28;20472;-79
2024/01/09 02:37:26;;;;;;;12.40;7.57;;;;;;;;;;5000782;28;20980;-79
2024/01/09 02:39:52;;;;;;;12.97;7.23;;;;;;;;;;5017377;28;20453;-79
2024/01/09 02:42:18;;;;;;;12.60;7.90;;;;;;;;;;5021904;28;20449;-79
2024/01/09 02:44:44;;;;;;;16.77;8.63;;;;;;;;;;5030565;28;20445;-79
2024/01/09 02:47:10;;;;;;;15.10;7.90;;;;;;;;;;5027020;28;20425;-79
2024/01/09 02:49:37;;;;;;;14.30;8.10;;;;;;;;;;5029707;28;20771;-79
2024/01/09 02:52:03;;;;;;;13.57;7.20;;;;;;;;;;5026931;28;20425;-79
2024/01/09 02:54:29;;;;;;;14.43;8.13;;;;;;;;;;5028884;28;20476;-79
2024/01/09 02:56:56;;;;;;;13.37;7.67;;;;;;;;;;5014149;28;20586;-80
2024/01/09 02:59:23;;;;;;;13.70;7.87;;;;;;;;;;5011834;28;20452;-80
2024/01/09 03:01:50;;;;;;;10.83;6.70;;;;;;;;;;5014335;28;20449;-80
2024/01/09 03:04:16;;;;;;;11.43;7.17;;;;;;;;;;4997343;28;20542;-80
2024/01/09 03:06:42;;;;;;;11.00;6.80;;;;;;;;;;5013115;28;20771;-80
2024/01/09 03:09:11;;;;;;;13.93;8.03;;;;;;;;;;5029646;28;20898;-80
2024/01/09 03:11:37;;;;;;;13.27;7.47;;;;;;;;;;5032064;28;20186;-80
2024/01/09 03:14:03;;;;;;;13.27;7.73;;;;;;;;;;5024806;28;21004;-80
2024/01/09 03:16:29;;;;;;;13.43;7.43;;;;;;;;;;5010483;28;20445;-80
2024/01/09 03:18:56;;;;;;;15.20;8.10;;;;;;;;;;5028752;28;20471;-80
2024/01/09 03:21:22;;;;;;;13.00;7.43;;;;;;;;;;5028454;28;20436;-80
2024/01/09 03:23:48;;;;;;;11.63;7.37;;;;;;;;;;5021293;28;20797;-80
2024/01/09 03:26:15;;;;;;;13.67;7.03;;;;;;;;;;5013399;28;20503;-80
2024/01/09 03:28:41;;;;;;;14.87;8.03;;;;;;;;;;5009449;28;20476;-79
2024/01/09 03:31:07;;;;;;;14.53;8.20;;;;;;;;;;5009458;28;20463;-79
2024/01/09 03:33:33;;;;;;;14.10;8.10;;;;;;;;;;5010613;28;20213;-79
2024/01/09 03:36:06;;;;;;;13.67;8.23;;;;;;;;;;5032856;28;20801;-79
2024/01/09 03:38:32;;;;;;;15.73;7.60;;;;;;;;;;5013827;28;20838;-79
2024/01/09 03:40:58;;;;;;;11.03;6.93;;;;;;;;;;5029921;28;20448;-79
2024/01/09 03:43:24;;;;;;;13.30;8.43;;;;;;;;;;4992721;28;20953;-79
2024/01/09 03:45:52;;;;;;;13.43;7.70;;;;;;;;;;5027084;28;20892;-79
2024/01/09 03:48:18;;;;;;;15.27;8.27;;;;;;;;;;5013640;28;20441;-79
2024/01/09 03:50:44;;;;;;;14.33;7.60;;;;;;;;;;5024591;28;20469;-79
2024/01/09 03:53:10;;;;;;;12.50;7.63;;;;;;;;;;5028383;28;20849;-79
2024/01/09 03:55:36;;;;;;;13.50;7.50;;;;;;;;;;4998324;28;20908;-79
2024/01/09 03:58:03;;;;;;;11.80;7.33;;;;;;;;;;5019755;28;20441;-80
2024/01/09 04:00:29;;;;;;;11.37;6.50;;;;;;;;;;5028758;28;20444;-79
2024/01/09 04:02:55;;;;;;;12.90;7.30;;;;;;;;;;5008621;28;20460;-79
2024/01/09 04:05:21;;;;;;;10.90;6.47;;;;;;;;;;5014854;28;21219;-79
2024/01/09 04:07:47;;;;;;;10.60;6.67;;;;;;;;;;5027671;28;20561;-79
2024/01/09 04:10:13;;;;;;;11.83;7.27;;;;;;;;;;5030429;28;20801;-80
2024/01/09 04:12:39;;;;;;;14.87;8.17;;;;;;;;;;5024531;28;20486;-79
2024/01/09 04:15:06;;;;;;;11.93;7.47;;;;;;;;;;5011468;28;20478;-79
2024/01/09 04:17:32;;;;;;;13.70;7.57;;;;;;;;;;5031291;28;20822;-79
2024/01/09 04:19:58;;;;;;;14.63;8.40;;;;;;;;;;5031676;28;20421;-79
2024/01/09 04:22:24;;;;;;;13.53;7.80;;;;;;;;;;5023844;28;20802;-79
2024/01/09 04:24:51;;;;;;;11.90;7.03;;;;;;;;;;5026269;28;20455;-79
2024/01/09 04:27:17;;;;;;;13.17;7.37;;;;;;;;;;5023011;28;20444;-80
2024/01/09 04:29:43;;;;;;;13.87;7.57;;;;;;;;;;5025701;28;20488;-80
2024/01/09 04:32:09;;;;;;;17.77;9.77;;;;;;;;;;5022086;28;20430;-79
2024/01/09 04:34:37;;;;;;;15.60;8.30;;;;;;;;;;5031058;28;20486;-80
2024/01/09 04:37:03;;;;;;;15.80;9.20;;;;;;;;;;5031671;28;20987;-80
2024/01/09 04:39:29;;;;;;;14.57;8.27;;;;;;;;;;5000956;28;20434;-79
2024/01/09 04:41:56;;;;;;;13.47;7.70;;;;;;;;;;5026242;28;20437;-79
2024/01/09 04:44:22;;;;;;;14.30;8.43;;;;;;;;;;5029535;28;20467;-79
2024/01/09 04:46:49;;;;;;;13.30;7.53;;;;;;;;;;5011451;28;20433;-79
2024/01/09 04:49:15;;;;;;;13.63;8.10;;;;;;;;;;5026136;28;20452;-79
2024/01/09 04:51:42;;;;;;;13.97;7.87;;;;;;;;;;4992866;28;20564;-79
2024/01/09 04:54:08;;;;;;;16.13;8.17;;;;;;;;;;5025988;28;20578;-79
2024/01/09 04:56:34;;;;;;;15.07;8.90;;;;;;;;;;5009232;28;21324;-79
2024/01/09 04:59:00;;;;;;;13.70;7.93;;;;;;;;;;5031071;28;20417;-79
2024/01/09 05:01:28;;;;;;;12.17;7.40;;;;;;;;;;5013255;28;20492;-80
2024/01/09 05:03:54;;;;;;;11.80;7.03;;;;;;;;;;5010644;28;20492;-79
2024/01/09 05:06:21;;;;;;;12.67;7.60;;;;;;;;;;5028157;28;20559;-79
2024/01/09 05:08:47;;;;;;;12.07;7.30;;;;;;;;;;4994796;28;20196;-79
2024/01/09 05:11:13;;;;;;;12.40;7.77;;;;;;;;;;4994055;28;20441;-79
2024/01/09 05:13:40;;;;;;;11.90;7.67;;;;;;;;;;5029042;28;20508;-80
2024/01/09 05:16:06;;;;;;;16.33;8.63;;;;;;;;;;5030456;28;20421;-80
2024/01/09 05:18:32;;;;;;;14.43;8.10;;;;;;;;;;5018291;28;20432;-80
2024/01/09 05:20:58;;;;;;;12.45;7.55;;;;;;;;;;5012076;28;20439;-79
2024/01/09 05:23:25;;;;;;;12.17;7.60;;;;;;;;;;5012567;28;20211;-80
2024/01/09 05:25:51;;;;;;;13.25;7.93;;;;;;;;;;5033042;28;20444;-80
2024/01/09 05:28:18;;;;;;;12.67;8.23;;;;;;;;;;5032104;28;20183;-80
2024/01/09 05:30:44;;;;;;;13.63;7.70;;;;;;;;;;5016652;28;20431;-80
2024/01/09 05:33:10;;;;;;;11.73;6.87;;;;;;;;;;5029278;28;20483;-79
2024/01/09 05:35:36;;;;;;;12.13;7.50;;;;;;;;;;5014520;28;20429;-79
2024/01/09 05:38:02;;;;;;;13.77;7.87;;;;;;;;;;5029919;28;20440;-79
2024/01/09 05:40:28;;;;;;;12.93;7.47;;;;;;;;;;5030989;28;20449;-79
2024/01/09 05:42:54;;;;;;;12.17;7.43;;;;;;;;;;5014815;28;20516;-80
2024/01/09 05:45:21;;;;;;;13.00;7.77;;;;;;;;;;5015379;28;20461;-80
2024/01/09 05:47:47;;;;;;;14.70;7.67;;;;;;;;;;5033450;28;20913;-80
2024/01/09 05:50:13;;;;;;;12.73;7.60;;;;;;;;;;5032539;28;20449;-80
2024/01/09 05:52:39;;;;;;;14.97;8.00;;;;;;;;;;5028467;28;20485;-79
2024/01/09 05:55:06;;;;;;;14.17;7.83;;;;;;;;;;5030790;28;20523;-79
2024/01/09 05:57:32;;;;;;;13.10;6.63;;;;;;;;;;5014134;28;20910;-80
2024/01/09 05:59:58;;;;;;;13.63;7.90;;;;;;;;;;4999915;28;20425;-80
2024/01/09 06:02:25;;;;;;;14.00;7.80;;;;;;;;;;5032936;28;20650;-80
2024/01/09 06:04:51;;;;;;;14.70;8.07;;;;;;;;;;5034750;28;20614;-80
2024/01/09 06:07:18;;;;;;;12.33;7.13;;;;;;;;;;5050114;28;20501;-80
2024/01/09 06:09:45;;;;;;;13.15;8.55;;;;;;;;;;5028299;28;20444;-80
2024/01/09 06:12:11;;;;;;;16.27;7.70;;;;;;;;;;5047196;28;20222;-80
2024/01/09 06:14:37;;;;;;;16.13;7.90;;;;;;;;;;5015056;28;20210;-80
2024/01/09 06:17:04;;;;;;;13.60;7.80;;;;;;;;;;5032945;28;20193;-78
2024/01/09 06:19:31;;;;;;;15.60;8.80;;;;;;;;;;5030679;28;20988;-80
2024/01/09 06:21:57;;;;;;;15.83;8.20;;;;;;;;;;5020534;28;20437;-79
2024/01/09 06:24:23;;;;;;;14.95;8.90;;;;;;;;;;5031516;28;20425;-78
2024/01/09 06:26:49;;;;;;;15.43;8.97;;;;;;;;;;5030339;28;20635;-79
2024/01/09 06:29:17;;;;;;;13.37;7.73;;;;;;;;;;5034784;28;20448;-80
2024/01/09 06:31:44;;;;;;;13.67;7.53;;;;;;;;;;5011772;28;20866;-80
2024/01/09 06:34:12;;;;;;;14.53;8.33;;;;;;;;;;5011049;28;20472;-80
2024/01/09 06:36:45;;;;;;;16.50;9.17;;;;;;;;;;5014898;28;20450;-81
2024/01/09 06:39:14;;;;;;;16.70;9.50;;;;;;;;;;5023250;28;20445;-81
2024/01/09 06:41:42;;;;;;;17.17;9.90;;;;;;;;;;5009854;28;20437;-81
2024/01/09 06:44:08;;;;;;;16.33;8.57;;;;;;;;;;5012447;28;20480;-78
2024/01/09 06:46:34;;;;;;;14.23;8.20;;;;;;;;;;5026415;28;20428;-77
2024/01/09 06:49:00;;;;;;;14.67;9.30;;;;;;;;;;5029197;28;20940;-78
2024/01/09 06:51:26;;;;;;;16.67;9.50;;;;;;;;;;5029325;28;20456;-77
2024/01/09 06:53:52;;;;;;;16.70;9.33;;;;;;;;;;5024591;28;20472;-78
2024/01/09 06:56:18;;;;;;;13.70;7.73;;;;;;;;;;5030262;28;20532;-78
2024/01/09 06:58:45;;;;;;;16.70;9.13;;;;;;;;;;5022553;28;20442;-79
2024/01/09 07:01:11;;;;;;;14.50;8.47;;;;;;;;;;4995924;28;20465;-76
2024/01/09 07:03:38;;;;;;;17.07;9.43;;;;;;;;;;5027491;28;20544;-75
2024/01/09 07:06:04;;;;;;;15.40;8.82;;;;;;;;;;5027889;28;20417;-81
2024/01/09 07:08:30;;;;;;;17.93;9.97;;;;;;;;;;5019180;28;20712;-79
2024/01/09 07:10:57;;;;;;;13.63;8.27;;;;;;;;;;5026569;28;20437;-80
2024/01/09 07:13:23;;;;;;;15.17;8.53;;;;;;;;;;5011190;28;20489;-80
2024/01/09 07:15:49;;;;;;;14.07;8.23;;;;;;;;;;4995310;28;20986;-79
2024/01/09 07:18:16;;;;;;;13.83;8.00;;;;;;;;;;5026158;28;20418;-80
2024/01/09 07:20:43;;;;;;;13.13;8.23;;;;;;;;;;5027546;28;20448;-80
2024/01/09 07:23:09;;;;;;;15.03;8.57;;;;;;;;;;5012987;28;20450;-79
2024/01/09 07:25:36;;;;;;;13.70;7.63;;;;;;;;;;5027093;28;20513;-80
2024/01/09 07:28:02;;;;;;;13.47;7.30;;;;;;;;;;5006423;28;20442;-80
2024/01/09 07:30:28;;;;;;;15.30;8.33;;;;;;;;;;5029810;28;20442;-80
2024/01/09 07:32:54;;;;;;;16.53;9.03;;;;;;;;;;5013033;28;20488;-80
2024/01/09 07:35:20;;;;;;;15.63;8.90;;;;;;;;;;5025970;28;20437;-80
2024/01/09 07:37:46;;;;;;;17.43;9.27;;;;;;;;;;5025697;28;20832;-80
2024/01/09 07:40:12;;;;;;;17.83;9.67;;;;;;;;;;5007325;28;20478;-80
2024/01/09 07:42:38;;;;;;;16.93;9.23;;;;;;;;;;5029309;28;21006;-80
2024/01/09 07:45:05;;;;;;;17.30;9.20;;;;;;;;;;5025969;28;20441;-80
2024/01/09 07:47:31;;;;;;;17.57;9.63;;;;;;;;;;5008797;28;20445;-80
2024/01/09 07:49:57;;;;;;;16.50;9.67;;;;;;;;;;5010639;28;20441;-80
2024/01/09 07:52:24;;;;;;;15.77;8.93;;;;;;;;;;5038570;28;20438;-80
2024/01/09 07:54:50;;;;;;;15.83;7.80;;;;;;;;;;5025016;28;20995;-80
2024/01/09 07:57:17;;;;;;;14.00;8.00;;;;;;;;;;5007290;28;20438;-80
2024/01/09 07:59:43;;;;;;;15.83;8.77;;;;;;;;;;5029188;28;20429;-80
2024/01/09 08:02:09;;;;;;;16.07;8.63;;;;;;;;;;5029353;28;20965;-80
2024/01/09 08:04:35;;;;;;;13.57;8.03;;;;;;;;;;5008717;28;20803;-80
2024/01/09 08:07:02;;;;;;;13.53;7.80;;;;;;;;;;5007080;28;20448;-79
2024/01/09 08:09:29;;;;;;;16.30;8.87;;;;;;;;;;5024480;28;20437;-79
2024/01/09 08:11:55;;;;;;;14.90;8.73;;;;;;;;;;5021734;28;20484;-79
2024/01/09 08:14:21;;;;;;;15.97;8.80;;;;;;;;;;5010598;28;20456;-79
2024/01/09 08:16:47;;;;;;;14.43;8.67;;;;;;;;;;5024996;28;20468;-78
2024/01/09 08:19:13;;;;;;;14.10;8.57;;;;;;;;;;5029331;28;21030;-81
2024/01/09 08:21:40;;;;;;;17.50;10.70;;;;;;;;;;5029977;28;20461;-82
2024/01/09 08:24:06;;;;;;;16.67;9.80;;;;;;;;;;5026458;28;21082;-82
2024/01/09 08:26:32;;;;;;;16.43;9.53;;;;;;;;;;5004693;28;20456;-77
2024/01/09 08:29:00;;;;;;;16.37;9.00;;;;;;;;;;5030628;28;20428;-82
2024/01/09 08:31:26;;;;;;;14.93;8.70;;;;;;;;;;5007496;28;20417;-78
2024/01/09 08:33:52;;;;;;;14.80;8.40;;;;;;;;;;5027761;28;20849;-83
2024/01/09 08:36:18;;;;;;;14.00;8.30;;;;;;;;;;4993949;28;20440;-80
2024/01/09 08:38:44;;;;;;;13.30;7.73;;;;;;;;;;5007041;28;20441;-78
2024/01/09 08:41:10;;;;;;;14.93;7.60;;;;;;;;;;5021421;28;20960;-78
2024/01/09 08:43:37;;;;;;;16.43;7.83;;;;;;;;;;5004345;28;20793;-78
2024/01/09 08:46:03;;;;;;;15.93;7.77;;;;;;;;;;5029843;28;20444;-78
2024/01/09 08:48:29;;;;;;;13.77;7.77;;;;;;;;;;5013208;28;20440;-78
2024/01/09 08:50:55;;;;;;;14.53;8.37;;;;;;;;;;5019112;28;20453;-78
2024/01/09 08:53:24;;;;;;;13.20;7.70;;;;;;;;;;5034587;28;20473;-78
2024/01/09 08:55:50;;;;;;;13.03;7.87;;;;;;;;;;5034102;28;20186;-78
2024/01/09 08:58:16;;;;;;;15.13;8.40;;;;;;;;;;5013937;28;20487;-78
2024/01/09 09:00:42;;;;;;;15.10;8.33;;;;;;;;;;5032658;28;20465;-78
2024/01/09 09:03:08;;;;;;;12.53;7.40;;;;;;;;;;5028491;28;20539;-78
2024/01/09 09:05:34;;;;;;;14.73;8.63;;;;;;;;;;5029578;28;20486;-78
2024/01/09 09:08:00;;;;;;;16.70;9.07;;;;;;;;;;5031943;28;20256;-78
2024/01/09 09:10:26;;;;;;;13.97;8.40;;;;;;;;;;5033840;28;20424;-78
2024/01/09 09:12:53;;;;;;;12.83;7.60;;;;;;;;;;5030103;28;21024;-78
2024/01/09 09:15:19;;;;;;;14.37;7.93;;;;;;;;;;5032770;28;20464;-78
2024/01/09 09:17:45;;;;;;;14.30;8.13;;;;;;;;;;5028701;28;20266;-79
2024/01/09 09:20:11;;;;;;;14.30;8.30;;;;;;;;;;5031652;28;20927;-78
2024/01/09 09:22:38;;;;;;;13.10;7.83;;;;;;;;;;5028573;28;20215;-78
2024/01/09 09:25:04;;;;;;;13.73;7.83;;;;;;;;;;5035904;28;20493;-78
2024/01/09 09:27:31;;;;;;;13.93;8.20;;;;;;;;;;5010913;28;20206;-79
2024/01/09 09:29:57;;;;;;;16.27;8.50;;;;;;;;;;5028525;28;20901;-79
2024/01/09 09:32:24;;;;;;;12.03;7.27;;;;;;;;;;5030540;28;20183;-79
2024/01/09 09:34:50;;;;;;;12.93;7.70;;;;;;;;;;5023976;28;20305;-76
2024/01/09 09:37:16;;;;;;;12.93;7.87;;;;;;;;;;5021414;28;20441;-78
2024/01/09 09:39:42;;;;;;;13.67;8.10;;;;;;;;;;5009731;28;20446;-79
2024/01/09 09:42:08;;;;;;;15.13;7.73;;;;;;;;;;5029075;28;20190;-80
2024/01/09 09:44:36;;;;;;;13.47;8.10;;;;;;;;;;5015076;28;20456;-78
2024/01/09 09:47:03;;;;;;;12.60;7.20;;;;;;;;;;5029919;28;20201;-78
2024/01/09 09:49:29;;;;;;;16.33;7.90;;;;;;;;;;5027103;28;20477;-79
2024/01/09 09:51:56;;;;;;;15.40;7.93;;;;;;;;;;4996816;28;20187;-79
2024/01/09 09:54:23;;;;;;;12.73;8.13;;;;;;;;;;5030817;28;20218;-78
2024/01/09 09:56:49;;;;;;;12.30;7.87;;;;;;;;;;5025188;28;20230;-78
2024/01/09 09:59:15;;;;;;;12.67;7.43;;;;;;;;;;5028147;28;20196;-78
2024/01/09 10:01:42;;;;;;;11.77;6.80;;;;;;;;;;5033119;28;20445;-79
2024/01/09 10:04:14;;;;;;;13.53;7.53;;;;;;;;;;5030937;28;20206;-79
2024/01/09 10:06:43;;;;;;;13.57;7.57;;;;;;;;;;5029391;28;20205;-80
2024/01/09 10:09:13;;;;;;;18.20;8.20;;;;;;;;;;5032405;28;20716;-78
2024/01/09 10:11:40;;;;;;;12.80;7.77;;;;;;;;;;5023106;28;20437;-78
2024/01/09 10:14:09;;;;;;;14.63;8.53;;;;;;;;;;5029527;28;20214;-80
2024/01/09 10:16:48;;;;;;;11.70;7.13;;;;;;;;;;5024771;28;20185;-78
2024/01/09 10:19:14;;;;;;;13.90;7.53;;;;;;;;;;5032263;28;20242;-78
2024/01/09 10:21:41;;;;;;;13.63;7.50;;;;;;;;;;5030979;28;20195;-78
2024/01/09 10:24:08;;;;;;;12.63;7.30;;;;;;;;;;5031105;28;20214;-79
2024/01/09 10:26:34;;;;;;;11.57;7.10;;;;;;;;;;5011869;28;20183;-78
2024/01/09 10:29:01;;;;;;;14.77;7.47;;;;;;;;;;5028207;28;20182;-80
2024/01/09 10:31:29;;;;;;;13.40;7.40;;;;;;;;;;5025483;28;20604;-78
2024/01/09 10:33:56;;;;;;;13.27;7.03;;;;;;;;;;5026903;28;20565;-78
2024/01/09 10:36:23;;;;;;;13.10;7.10;;;;;;;;;;5029815;28;20674;-78
2024/01/09 10:38:49;;;;;;;15.87;7.47;;;;;;;;;;5031107;28;20182;-78
2024/01/09 10:41:16;;;;;;;13.90;7.50;;;;;;;;;;5028796;28;20182;-78
2024/01/09 10:43:42;;;;;;;12.07;7.03;;;;;;;;;;5007915;28;20310;-79
2024/01/09 10:46:09;;;;;;;13.73;7.53;;;;;;;;;;5013215;28;20232;-78
2024/01/09 10:48:35;;;;;;;12.23;6.73;;;;;;;;;;5026148;28;20193;-81
2024/01/09 10:51:02;;;;;;;12.40;7.13;;;;;;;;;;5028979;28;20424;-78
2024/01/09 10:53:29;;;;;;;12.13;7.00;;;;;;;;;;5014201;28;20210;-78
2024/01/09 10:55:55;;;;;;;13.70;7.50;;;;;;;;;;5013100;28;20194;-78
2024/01/09 10:58:22;;;;;;;11.93;6.60;;;;;;;;;;5030839;28;20182;-78
2024/01/09 11:00:48;;;;;;;12.43;7.40;;;;;;;;;;5031733;28;20290;-79
2024/01/09 11:03:14;;;;;;;10.83;6.90;;;;;;;;;;5028012;28;20202;-78
2024/01/09 11:05:41;;;;;;;12.50;7.53;;;;;;;;;;5027517;28;20292;-78
2024/01/09 11:08:10;;;;;;;10.33;6.50;;;;;;;;;;5028961;28;20213;-78
2024/01/09 11:10:37;;;;;;;11.60;7.07;;;;;;;;;;5008244;28;20190;-78
2024/01/09 11:13:05;;;;;;;11.97;6.23;;;;;;;;;;5025374;28;20210;-77
2024/01/09 11:15:36;;;;;;;11.27;6.97;;;;;;;;;;5030178;28;20204;-79
2024/01/09 11:18:11;;;;;;;11.23;6.63;;;;;;;;;;5024418;28;20197;-80
2024/01/09 11:20:37;;;;;;;12.43;7.23;;;;;;;;;;5029853;28;20205;-78
2024/01/09 11:23:04;;;;;;;12.27;6.63;;;;;;;;;;5013195;28;20244;-78
2024/01/09 11:25:31;;;;;;;12.63;7.10;;;;;;;;;;5026860;28;20187;-78
2024/01/09 11:27:58;;;;;;;11.57;6.83;;;;;;;;;;5030485;28;20183;-77
2024/01/09 11:30:27;;;;;;;11.73;7.23;;;;;;;;;;5028204;28;20203;-80
2024/01/09 11:32:53;;;;;;;14.10;6.70;;;;;;;;;;5027777;28;20257;-78
2024/01/09 11:35:21;;;;;;;11.53;6.47;;;;;;;;;;5029833;28;20233;-79
2024/01/09 11:37:55;;;;;;;10.83;6.57;;;;;;;;;;5028851;28;20186;-78
2024/01/09 11:40:21;;;;;;;12.73;6.77;;;;;;;;;;5028710;28;20228;-78
2024/01/09 11:42:49;;;;;;;11.73;6.50;;;;;;;;;;5028781;28;20274;-79
2024/01/09 11:45:20;;;;;;;10.90;6.47;;;;;;;;;;5010922;28;20199;-78
2024/01/09 11:47:46;;;;;;;10.83;6.83;;;;;;;;;;5023919;28;20657;-78
2024/01/09 11:50:12;;;;;;;12.23;6.90;;;;;;;;;;5026140;28;20195;-78
2024/01/09 11:52:41;;;;;;;10.13;6.40;;;;;;;;;;5010191;28;20298;-78
2024/01/09 11:55:08;;;;;;;11.00;6.50;;;;;;;;;;5026038;28;20679;-78
2024/01/09 11:57:35;;;;;;;15.70;6.57;;;;;;;;;;5027029;28;20170;-78
2024/01/09 12:00:05;;;;;;;11.33;6.87;;;;;;;;;;5024292;28;20195;-79
2024/01/09 12:02:33;;;;;;;10.57;6.20;;;;;;;;;;5005903;28;20214;-78
2024/01/09 12:05:00;;;;;;;10.87;6.77;;;;;;;;;;5026798;28;20305;-78
2024/01/09 12:07:26;;;;;;;11.03;6.97;;;;;;;;;;5028994;28;20197;-78
2024/01/09 12:09:52;;;;;;;10.50;6.60;;;;;;;;;;5012214;28;20736;-79
2024/01/09 12:12:25;;;;;;;11.33;6.50;;;;;;;;;;5027130;28;20213;-78
2024/01/09 12:14:52;;;;;;;10.73;6.70;;;;;;;;;;5027872;28;20214;-78
2024/01/09 12:17:20;;;;;;;11.13;6.07;;;;;;;;;;5027558;28;20181;-78
2024/01/09 12:19:46;;;;;;;11.13;6.83;;;;;;;;;;5028905;28;20186;-78
2024/01/09 12:22:12;;;;;;;11.17;6.80;;;;;;;;;;5028268;28;20252;-79
2024/01/09 12:24:39;;;;;;;8.90;6.03;;;;;;;;;;5007651;28;20191;-78
2024/01/09 12:27:06;;;;;;;9.80;6.20;;;;;;;;;;5025123;28;20271;-78
2024/01/09 12:29:32;;;;;;;10.80;6.47;;;;;;;;;;5028492;28;20283;-78
2024/01/09 12:31:58;;;;;;;8.77;5.70;;;;;;;;;;5023697;28;20190;-78
2024/01/09 12:34:24;;;;;;;10.17;6.70;;;;;;;;;;5024973;28;20241;-78
2024/01/09 12:36:50;;;;;;;11.07;6.67;;;;;;;;;;5029347;28;20186;-78
2024/01/09 12:39:19;;;;;;;8.80;5.83;;;;;;;;;;5027360;28;20653;-78
2024/01/09 12:41:45;;;;;;;9.30;5.80;;;;;;;;;;5028134;28;20213;-78
2024/01/09 12:44:14;;;;;;;12.27;6.37;;;;;;;;;;5029830;28;20579;-78
2024/01/09 12:46:44;;;;;;;13.10;6.33;;;;;;;;;;5010469;28;20285;-78
2024/01/09 12:49:11;;;;;;;10.47;6.40;;;;;;;;;;5028962;28;20658;-78
2024/01/09 12:51:37;;;;;;;9.53;6.47;;;;;;;;;;5029871;28;20182;-78
2024/01/09 12:54:03;;;;;;;9.23;6.20;;;;;;;;;;5030070;28;20203;-78
2024/01/09 12:56:30;;;;;;;11.40;7.53;;;;;;;;;;5026518;28;20256;-78
2024/01/09 12:58:56;;;;;;;10.10;6.07;;;;;;;;;;5029003;28;20193;-78
2024/01/09 13:01:25;;;;;;;13.03;6.50;;;;;;;;;;5027276;28;20205;-79
2024/01/09 13:03:51;;;;;;;9.97;6.33;;;;;;;;;;5028708;28;20210;-78
2024/01/09 13:06:17;;;;;;;13.93;8.10;;;;;;;;;;4996275;28;20190;-79
2024/01/09 13:08:44;;;;;;;10.27;5.83;;;;;;;;;;5026337;28;20247;-78
2024/01/09 13:11:10;;;;;;;9.83;5.93;;;;;;;;;;5027418;28;20622;-78
2024/01/09 13:13:37;;;;;;;13.03;7.40;;;;;;;;;;5026470;28;20451;-77
2024/01/09 13:16:04;;;;;;;9.07;6.20;;;;;;;;;;5026916;28;20183;-79
2024/01/09 13:18:30;;;;;;;10.57;5.73;;;;;;;;;;5026923;28;20190;-78
2024/01/09 13:20:56;;;;;;;11.37;6.20;;;;;;;;;;5030140;28;20553;-78
2024/01/09 13:23:25;;;;;;;15.73;9.17;;;;;;;;;;5029168;28;20216;-79
2024/01/09 13:25:52;;;;;;;9.97;6.20;;;;;;;;;;5028700;28;20183;-78
2024/01/09 13:28:18;;;;;;;10.00;6.03;;;;;;;;;;5028414;28;20187;-78
2024/01/09 13:30:45;;;;;;;9.73;5.70;;;;;;;;;;5026066;28;20186;-78
2024/01/09 13:33:12;;;;;;;10.43;5.90;;;;;;;;;;5030098;28;20206;-78
2024/01/09 13:35:39;;;;;;;9.23;5.80;;;;;;;;;;5006570;28;20287;-80
2024/01/09 13:38:06;;;;;;;11.93;6.00;;;;;;;;;;5031849;28;20210;-78
2024/01/09 13:40:35;;;;;;;9.00;5.63;;;;;;;;;;5030070;28;20646;-78
2024/01/09 13:43:03;;;;;;;8.43;5.47;;;;;;;;;;5029748;28;20203;-80
2024/01/09 13:45:29;;;;;;;9.67;5.73;;;;;;;;;;5025339;28;20204;-79
2024/01/09 13:47:55;;;;;;;9.97;5.80;;;;;;;;;;5027868;28;20187;-78
2024/01/09 13:50:23;;;;;;;9.97;5.53;;;;;;;;;;5032136;28;20236;-78
2024/01/09 13:52:49;;;;;;;10.40;5.47;;;;;;;;;;5028952;28;20202;-78
2024/01/09 13:55:15;;;;;;;8.10;5.07;;;;;;;;;;5015490;28;20218;-79
2024/01/09 13:57:45;;;;;;;8.20;5.20;;;;;;;;;;5028122;28;20193;-78
2024/01/09 14:00:12;;;;;;;8.10;5.43;;;;;;;;;;5013182;28;20651;-78
2024/01/09 14:02:38;;;;;;;12.13;6.57;;;;;;;;;;5015037;28;20309;-79
2024/01/09 14:05:08;;;;;;;11.50;6.90;;;;;;;;;;5030072;28;20228;-80
2024/01/09 14:07:36;;;;;;;8.83;5.10;;;;;;;;;;5031510;28;20198;-79
2024/01/09 14:10:03;;;;;;;8.93;5.27;;;;;;;;;;5030900;28;20273;-80
2024/01/09 14:12:34;;;;;;;7.93;5.00;;;;;;;;;;5024897;28;20186;-80
2024/01/09 14:15:01;;;;;;;8.97;5.23;;;;;;;;;;5030285;28;20218;-79
2024/01/09 14:17:28;;;;;;;7.30;4.67;;;;;;;;;;4995265;28;20286;-80
2024/01/09 14:19:54;;;;;;;7.70;4.77;;;;;;;;;;5015062;28;20175;-80
2024/01/09 14:22:21;;;;;;;8.47;5.50;;;;;;;;;;5032772;28;20280;-80
2024/01/09 14:24:47;;;;;;;8.10;5.10;;;;;;;;;;5013258;28;20338;-79
2024/01/09 14:27:14;;;;;;;8.43;5.43;;;;;;;;;;5011131;28;20317;-80